Main page
METAR-TAF:

METAR-TAF

Airports :

Cambridge Airport

Cambridge, England

latitude: 52-12N, longitude: 000-11E, elevation: 15 m

Current weather observation

The report was made 7 hours and 29 minutes ago, at 17:50 UTC
Wind 11 kt from the West/Southwest
Temperature 7°C
Humidity 81%
Pressure 1010 hPa
Visibility 10 km or more
Few clouds at a height of 2400 ft, Cumulonimbus.

METAR: EGSC 171750Z 24011KT 9999 FEW024CB 07/04 Q1010

Time: 01:19 (01:19 UTC)

Forecast

The report was made 11 hours and 21 minutes ago, at 13:58 UTC
Forecast valid from 17 at 15 UTC to 17 at 19 UTC
Wind 15 kt from the Southwest
Visibility 10 km or more
Scattered clouds at a height of 2500 ft
Probability 30% :
Temporary
from 17 at 15 UTC to 17 at 19 UTC
Wind 20 kt from the West/Southwest with gusts up to 30 kt
Visibility: 4000 m
Broken clouds at a height of 1400 ft, Cumulonimbus.
heavy rain showers

TAF: EGSC 171358Z 1715/1719 23015KT 9999 SCT025 PROB30 TEMPO 1715/1719 24020G30KT 4000 +SHRA BKN014CB

Weather observations and forecasts of more than 4000 airports (METAR and TAF reports).

The available stations are represented by yellow and red dots on the map.

Hover mouse over dot to see the name of the station.

Then click to see weather observations and forecasts.

To change the map : click on the green buttons with a black cross to zoom in, on the green button with a dash to zoom out, or on the green arrows for adjacent maps.


METAR-TAF: